Time;durP1;ratioP1;P1;durP2;ratioP2;P2;SDS_P1;SDS_P2;PMS_P1;PMS_P2;Temp;Humidity;BMP_temperature;BMP_pressure;BME280_temperature;BME280_humidity;BME280_pressure;Samples;Min_cycle;Max_cycle;Signal;HPM_P1;HPM_P2
2022/03/07 00:00:09;;;;;;;17.35;15.55;;;-0.50;99.90;;;;;;5152332;27;20038;-72
2022/03/07 00:02:35;;;;;;;16.35;14.75;;;-0.50;99.90;;;;;;5152512;27;20483;-72
2022/03/07 00:05:01;;;;;;;17.77;16.02;;;-0.60;99.90;;;;;;5146911;27;20050;-71
2022/03/07 00:07:27;;;;;;;18.02;16.23;;;-0.60;99.90;;;;;;5147973;27;20225;-72
2022/03/07 00:09:52;;;;;;;18.25;15.30;;;-0.60;99.90;;;;;;5154369;27;20090;-71
2022/03/07 00:12:18;;;;;;;14.98;13.50;;;-0.60;99.90;;;;;;5142007;27;20121;-71
2022/03/07 00:14:44;;;;;;;15.25;13.75;;;-0.60;99.90;;;;;;5145469;27;20050;-72
2022/03/07 00:17:09;;;;;;;18.60;16.70;;;-0.70;99.90;;;;;;5142146;27;20410;-71
2022/03/07 00:19:35;;;;;;;19.20;17.20;;;-0.80;99.90;;;;;;5143982;27;20046;-71
2022/03/07 00:22:01;;;;;;;19.83;17.73;;;-0.80;99.90;;;;;;5151368;27;20035;-71
2022/03/07 00:24:26;;;;;;;18.95;16.92;;;-0.80;99.90;;;;;;5141541;27;20042;-73
2022/03/07 00:26:52;;;;;;;19.20;17.27;;;-0.80;99.90;;;;;;5135682;27;20122;-72
2022/03/07 00:29:18;;;;;;;17.95;16.05;;;-0.80;99.90;;;;;;5152464;27;20079;-71
2022/03/07 00:31:45;;;;;;;18.27;16.48;;;-0.80;99.90;;;;;;5139228;27;20039;-73
2022/03/07 00:34:10;;;;;;;18.13;16.42;;;-0.80;99.90;;;;;;5122336;27;20117;-71
2022/03/07 00:36:36;;;;;;;18.70;16.80;;;-0.90;99.90;;;;;;5139871;27;20154;-71
2022/03/07 00:39:02;;;;;;;21.92;19.35;;;-0.90;99.90;;;;;;5134528;27;20041;-72
2022/03/07 00:41:28;;;;;;;19.90;17.80;;;-0.90;99.90;;;;;;5146393;27;20043;-72
2022/03/07 00:43:54;;;;;;;20.50;18.40;;;-0.80;99.90;;;;;;5134540;27;20048;-71
2022/03/07 00:46:20;;;;;;;20.67;18.50;;;-0.90;99.90;;;;;;5147019;27;20038;-71
2022/03/07 00:48:45;;;;;;;18.25;16.45;;;-0.90;99.90;;;;;;5139724;27;20050;-71
2022/03/07 00:51:11;;;;;;;20.37;18.17;;;-0.90;99.90;;;;;;5135035;27;20075;-71
2022/03/07 00:53:37;;;;;;;21.08;18.90;;;-0.90;99.90;;;;;;5141195;27;20408;-71
2022/03/07 00:56:03;;;;;;;19.70;17.67;;;-1.00;99.90;;;;;;5152250;27;20476;-71
2022/03/07 00:58:29;;;;;;;19.80;17.70;;;-1.00;99.90;;;;;;5141319;27;20042;-72
2022/03/07 01:00:54;;;;;;;19.17;17.17;;;-1.10;99.90;;;;;;5133846;27;20392;-71
2022/03/07 01:03:20;;;;;;;20.25;18.08;;;-1.10;99.90;;;;;;5152431;27;20119;-71
2022/03/07 01:05:46;;;;;;;19.15;17.25;;;-1.20;99.90;;;;;;5139052;27;20129;-71
2022/03/07 01:08:12;;;;;;;21.37;18.30;;;-1.20;99.90;;;;;;5140133;27;20055;-71
2022/03/07 01:10:39;;;;;;;21.87;19.53;;;-1.20;99.90;;;;;;5133578;27;20484;-72
2022/03/07 01:13:05;;;;;;;22.27;20.03;;;-1.30;99.90;;;;;;5146795;27;20042;-71
2022/03/07 01:15:31;;;;;;;22.30;19.73;;;-1.30;99.90;;;;;;5150826;27;20062;-72
2022/03/07 01:17:59;;;;;;;24.23;21.77;;;-1.30;99.90;;;;;;5139368;27;20487;-71
2022/03/07 01:20:26;;;;;;;25.37;22.67;;;-1.30;99.90;;;;;;5154057;27;20050;-71
2022/03/07 01:22:52;;;;;;;23.43;20.97;;;-1.30;99.90;;;;;;5135606;27;20122;-71
2022/03/07 01:25:18;;;;;;;25.43;22.83;;;-1.30;99.90;;;;;;5133334;28;20051;-71
2022/03/07 01:27:44;;;;;;;28.37;25.27;;;-1.30;99.90;;;;;;5146621;27;20098;-72
2022/03/07 01:30:10;;;;;;;28.07;25.03;;;-1.40;99.90;;;;;;5135284;27;20140;-71
2022/03/07 01:32:36;;;;;;;28.00;24.20;;;-1.30;99.90;;;;;;5115731;28;20043;-72
2022/03/07 01:35:03;;;;;;;29.60;26.40;;;-1.30;99.90;;;;;;5133011;27;20422;-72
2022/03/07 01:37:29;;;;;;;31.97;27.47;;;-1.40;99.90;;;;;;5148935;27;20500;-71
2022/03/07 01:39:54;;;;;;;30.27;26.73;;;-1.40;99.90;;;;;;5143078;27;20039;-71
2022/03/07 01:42:20;;;;;;;28.70;25.63;;;-1.40;99.90;;;;;;5133352;27;20085;-71
2022/03/07 01:44:46;;;;;;;25.13;22.37;;;-1.30;99.90;;;;;;5134934;27;20110;-71
2022/03/07 01:47:12;;;;;;;25.60;22.73;;;-1.30;99.90;;;;;;5135497;27;20043;-71
2022/03/07 01:49:37;;;;;;;27.87;24.87;;;-1.40;99.90;;;;;;5134030;27;20069;-72
2022/03/07 01:52:04;;;;;;;29.57;26.47;;;-1.40;99.90;;;;;;5136738;27;20411;-71
2022/03/07 01:54:30;;;;;;;29.40;26.30;;;-1.40;99.90;;;;;;5142194;27;20457;-71
2022/03/07 01:56:56;;;;;;;28.70;25.63;;;-1.40;99.90;;;;;;5136197;27;20043;-71
2022/03/07 01:59:25;;;;;;;31.33;27.20;;;-1.40;99.90;;;;;;5153832;27;20388;-71
2022/03/07 02:01:52;;;;;;;29.67;25.90;;;-1.40;99.90;;;;;;5150795;27;20402;-71
2022/03/07 02:04:18;;;;;;;40.80;32.20;;;-1.50;99.90;;;;;;5154145;27;20047;-71
2022/03/07 02:06:46;;;;;;;37.23;31.53;;;-1.50;99.90;;;;;;5130472;27;20095;-71
2022/03/07 02:09:12;;;;;;;37.23;30.47;;;-1.50;99.90;;;;;;5140125;27;20057;-71
2022/03/07 02:11:38;;;;;;;38.40;29.73;;;-1.50;99.90;;;;;;5156671;27;20082;-71
2022/03/07 02:14:16;;;;;;;34.37;30.43;;;-1.50;99.90;;;;;;5140708;27;20043;-71
2022/03/07 02:16:42;;;;;;;36.23;28.93;;;-1.60;99.90;;;;;;5148237;27;20078;-71
2022/03/07 02:19:08;;;;;;;36.27;28.97;;;-1.60;99.90;;;;;;5142214;27;20050;-71
2022/03/07 02:21:34;;;;;;;34.60;28.93;;;-1.60;99.90;;;;;;5142019;27;20487;-71
2022/03/07 02:24:00;;;;;;;34.20;29.27;;;-1.60;99.90;;;;;;5144592;27;20039;-71
2022/03/07 02:26:26;;;;;;;32.17;28.27;;;-1.70;99.90;;;;;;5151939;27;20045;-71
2022/03/07 02:28:53;;;;;;;31.07;27.03;;;-1.80;99.90;;;;;;5138978;27;20491;-71
2022/03/07 02:31:20;;;;;;;30.60;27.33;;;-1.80;99.90;;;;;;5122849;27;20035;-71
2022/03/07 02:33:48;;;;;;;31.57;27.37;;;-1.80;99.90;;;;;;5144558;27;20039;-72
2022/03/07 02:36:14;;;;;;;33.00;28.67;;;-1.90;99.90;;;;;;5147654;27;20035;-70
2022/03/07 02:38:39;;;;;;;31.57;28.17;;;-1.90;99.90;;;;;;5141980;27;20055;-73
2022/03/07 02:41:05;;;;;;;33.97;30.27;;;-1.80;99.90;;;;;;5137952;27;20491;-71
2022/03/07 02:43:31;;;;;;;36.90;30.90;;;-1.80;99.90;;;;;;5140553;27;20043;-71
2022/03/07 02:45:58;;;;;;;36.07;31.67;;;-1.80;99.90;;;;;;5153683;27;20035;-71
2022/03/07 02:48:26;;;;;;;35.23;30.40;;;-1.80;99.90;;;;;;5137656;27;20086;-71
2022/03/07 02:50:52;;;;;;;31.53;28.13;;;-1.80;99.90;;;;;;5135448;27;20047;-71
2022/03/07 02:53:19;;;;;;;32.67;28.83;;;-1.80;99.90;;;;;;5133196;27;20058;-71
2022/03/07 02:55:44;;;;;;;32.83;29.00;;;-1.80;99.90;;;;;;5135012;27;20081;-71
2022/03/07 02:58:10;;;;;;;31.80;28.13;;;-1.90;99.90;;;;;;5141794;27;20042;-71
2022/03/07 03:00:37;;;;;;;33.23;29.13;;;-1.90;99.90;;;;;;5136380;27;20043;-71
2022/03/07 03:03:03;;;;;;;37.10;30.50;;;-1.90;99.90;;;;;;5143442;27;20169;-71
2022/03/07 03:05:28;;;;;;;35.00;31.20;;;-1.90;99.90;;;;;;5155594;27;20054;-71
2022/03/07 03:07:54;;;;;;;36.10;31.30;;;-1.90;99.90;;;;;;5153763;27;20035;-71
2022/03/07 03:10:20;;;;;;;32.33;28.83;;;-2.00;99.90;;;;;;5146728;27;20039;-71
2022/03/07 03:12:48;;;;;;;35.73;30.80;;;-2.00;99.90;;;;;;5153897;27;20556;-71
2022/03/07 03:15:14;;;;;;;37.77;31.40;;;-2.00;99.90;;;;;;5154433;27;20039;-71
2022/03/07 03:17:41;;;;;;;36.40;30.93;;;-2.00;99.90;;;;;;5152347;27;20110;-71
2022/03/07 03:20:10;;;;;;;34.90;30.60;;;-1.90;99.90;;;;;;5152295;27;20491;-71
2022/03/07 03:22:36;;;;;;;39.90;31.43;;;-1.90;99.90;;;;;;5143757;27;20043;-71
2022/03/07 03:25:03;;;;;;;39.17;30.50;;;-1.90;99.90;;;;;;5134267;27;20801;-71
2022/03/07 03:27:29;;;;;;;38.00;30.77;;;-1.90;99.90;;;;;;5141535;27;20046;-72
2022/03/07 03:29:54;;;;;;;38.33;31.83;;;-1.80;99.90;;;;;;5136526;27;20043;-71
2022/03/07 03:32:20;;;;;;;35.20;31.33;;;-1.80;99.90;;;;;;5135794;27;20526;-71
2022/03/07 03:34:46;;;;;;;33.83;30.10;;;-1.70;99.90;;;;;;5145420;27;20046;-73
2022/03/07 03:37:11;;;;;;;32.30;28.97;;;-1.60;99.90;;;;;;5147615;27;20184;-71
2022/03/07 03:39:37;;;;;;;31.97;28.50;;;-1.40;99.90;;;;;;5135405;27;20058;-71
2022/03/07 03:42:04;;;;;;;31.63;28.23;;;-1.50;99.90;;;;;;5142361;27;20042;-71
2022/03/07 03:44:30;;;;;;;31.17;27.77;;;-1.50;99.90;;;;;;5139065;27;20070;-71
2022/03/07 03:46:55;;;;;;;31.67;28.37;;;-1.40;99.90;;;;;;5135002;27;20480;-71
2022/03/07 03:49:21;;;;;;;31.03;27.73;;;-1.40;99.90;;;;;;5154266;27;20460;-71
2022/03/07 03:51:47;;;;;;;30.33;27.17;;;-1.40;99.90;;;;;;5154527;27;20046;-73
2022/03/07 03:54:13;;;;;;;30.83;27.47;;;-1.40;99.90;;;;;;5154937;27;20463;-71
2022/03/07 03:56:40;;;;;;;30.77;27.43;;;-1.30;99.90;;;;;;5141919;27;20045;-71
2022/03/07 03:59:06;;;;;;;31.73;28.30;;;-1.30;99.90;;;;;;5147753;27;20050;-71
2022/03/07 04:01:32;;;;;;;29.60;25.90;;;-1.30;99.90;;;;;;5152963;27;20042;-71
2022/03/07 04:03:58;;;;;;;28.53;25.53;;;-1.30;99.90;;;;;;5119954;27;20055;-71
2022/03/07 04:06:23;;;;;;;27.97;25.17;;;-1.30;99.90;;;;;;5136725;27;20046;-71
2022/03/07 04:09:10;;;;;;;30.07;26.93;;;-1.30;99.90;;;;;;5152009;27;20106;-73
2022/03/07 04:11:35;;;;;;;29.07;25.97;;;-1.30;99.90;;;;;;5116634;27;20069;-71
2022/03/07 04:14:02;;;;;;;30.00;26.43;;;-1.30;99.90;;;;;;5139430;27;20126;-71
2022/03/07 04:16:28;;;;;;;30.70;26.67;;;-1.30;99.90;;;;;;5134002;27;20047;-71
2022/03/07 04:18:54;;;;;;;29.87;26.60;;;-1.30;99.90;;;;;;5146733;27;20552;-72
2022/03/07 04:21:19;;;;;;;28.33;25.27;;;-1.30;99.90;;;;;;5135063;27;20066;-71
2022/03/07 04:23:45;;;;;;;30.13;25.03;;;-1.30;99.90;;;;;;5152634;27;20069;-71
2022/03/07 04:26:11;;;;;;;28.53;24.43;;;-1.30;99.90;;;;;;5152389;27;20170;-71
2022/03/07 04:28:36;;;;;;;27.20;23.33;;;-1.30;99.90;;;;;;5123316;27;20035;-71
2022/03/07 04:31:02;;;;;;;27.10;24.30;;;-1.40;99.90;;;;;;5138979;27;20062;-71
2022/03/07 04:33:28;;;;;;;28.63;25.50;;;-1.40;99.90;;;;;;5152992;27;20050;-71
2022/03/07 04:35:53;;;;;;;28.23;25.20;;;-1.40;99.90;;;;;;5145465;27;20042;-73
2022/03/07 04:38:24;;;;;;;28.63;25.63;;;-1.30;99.90;;;;;;5135832;27;20058;-71
2022/03/07 04:40:50;;;;;;;28.05;24.88;;;-1.30;99.90;;;;;;5139977;27;20051;-71
2022/03/07 04:43:15;;;;;;;30.50;26.60;;;-1.30;99.90;;;;;;5134358;27;20445;-71
2022/03/07 04:45:41;;;;;;;27.90;24.80;;;-1.30;99.90;;;;;;5143674;27;20416;-71
2022/03/07 04:48:07;;;;;;;27.17;24.37;;;-1.30;99.90;;;;;;5151907;27;20118;-70
2022/03/07 04:50:33;;;;;;;27.23;23.93;;;-1.40;99.90;;;;;;5140925;27;20077;-71
2022/03/07 04:52:58;;;;;;;27.17;24.37;;;-1.40;99.90;;;;;;5135881;27;20495;-71
2022/03/07 04:55:24;;;;;;;27.27;22.40;;;-1.40;99.90;;;;;;5133466;27;20526;-71
2022/03/07 04:57:50;;;;;;;24.07;21.43;;;-1.40;99.90;;;;;;5134894;27;20047;-71
2022/03/07 05:00:16;;;;;;;25.57;22.77;;;-1.50;99.90;;;;;;5133148;27;20067;-71
2022/03/07 05:02:42;;;;;;;27.57;24.57;;;-1.60;99.90;;;;;;5115680;27;20050;-71
2022/03/07 05:05:08;;;;;;;28.87;25.80;;;-1.60;99.90;;;;;;5140945;27;20039;-71
2022/03/07 05:07:34;;;;;;;33.77;28.77;;;-1.70;99.90;;;;;;5146127;27;20529;-71
2022/03/07 05:10:00;;;;;;;33.97;27.00;;;-1.70;99.90;;;;;;5142620;27;20043;-71
2022/03/07 05:12:26;;;;;;;28.70;24.80;;;-1.70;99.90;;;;;;5133634;27;20108;-72
2022/03/07 05:14:51;;;;;;;31.47;26.43;;;-1.70;99.90;;;;;;5144364;27;20388;-71
2022/03/07 05:17:17;;;;;;;29.43;26.23;;;-1.70;99.90;;;;;;5145333;27;20043;-71
2022/03/07 05:19:45;;;;;;;30.47;26.90;;;-1.70;99.90;;;;;;5134425;27;20131;-71
2022/03/07 05:22:11;;;;;;;32.80;28.00;;;-1.70;99.90;;;;;;5132781;28;20051;-71
2022/03/07 05:24:36;;;;;;;30.83;27.50;;;-1.70;99.90;;;;;;5134637;27;20126;-71
2022/03/07 05:27:02;;;;;;;32.53;27.30;;;-1.70;99.90;;;;;;5118255;27;20431;-71
2022/03/07 05:29:28;;;;;;;34.37;28.50;;;-1.70;99.90;;;;;;5137571;27;20053;-71
2022/03/07 05:31:54;;;;;;;30.00;25.43;;;-1.80;99.90;;;;;;5140643;27;20053;-71
2022/03/07 05:34:19;;;;;;;34.17;26.87;;;-1.80;99.90;;;;;;5157428;27;20038;-71
2022/03/07 05:36:46;;;;;;;29.20;26.03;;;-1.80;99.90;;;;;;5157635;27;20151;-71
2022/03/07 05:39:11;;;;;;;31.70;26.40;;;-1.80;99.90;;;;;;5157420;27;20107;-71
2022/03/07 05:41:37;;;;;;;29.03;25.10;;;-1.80;99.90;;;;;;5157815;27;20039;-71
2022/03/07 05:44:03;;;;;;;27.60;23.83;;;-1.80;99.90;;;;;;5157243;27;20126;-73
2022/03/07 05:46:29;;;;;;;27.43;23.53;;;-1.80;99.90;;;;;;5157862;27;20084;-71
2022/03/07 05:48:55;;;;;;;28.40;24.23;;;-1.90;99.90;;;;;;5140067;27;20051;-71
2022/03/07 05:51:24;;;;;;;28.60;23.37;;;-1.90;99.90;;;;;;5136377;27;20042;-71
2022/03/07 05:53:51;;;;;;;25.23;22.53;;;-1.90;99.90;;;;;;5136914;27;20043;-71
2022/03/07 05:56:17;;;;;;;26.83;23.90;;;-2.00;99.90;;;;;;5136191;27;20053;-71
2022/03/07 05:58:43;;;;;;;26.20;23.40;;;-2.00;99.90;;;;;;5137178;27;20058;-71
2022/03/07 06:01:09;;;;;;;26.10;23.33;;;-2.00;99.90;;;;;;5136173;27;20399;-71
2022/03/07 06:03:34;;;;;;;27.10;24.17;;;-2.00;99.90;;;;;;5137771;27;20111;-71
2022/03/07 06:06:00;;;;;;;27.97;24.70;;;-2.00;99.90;;;;;;5136762;27;20043;-71
2022/03/07 06:08:26;;;;;;;29.17;25.57;;;-2.00;99.90;;;;;;5135994;27;20047;-71
2022/03/07 06:10:52;;;;;;;32.57;29.13;;;-2.00;99.90;;;;;;5136873;27;20396;-71
2022/03/07 06:13:19;;;;;;;33.10;28.07;;;-2.00;99.90;;;;;;5135859;27;20050;-71
2022/03/07 06:15:45;;;;;;;31.30;27.67;;;-2.00;99.90;;;;;;5136390;27;20043;-71
2022/03/07 06:18:12;;;;;;;31.67;27.77;;;-2.00;99.90;;;;;;5136955;27;20434;-71
2022/03/07 06:20:38;;;;;;;33.03;28.97;;;-1.90;99.90;;;;;;5136383;27;20058;-71
2022/03/07 06:23:05;;;;;;;33.87;29.23;;;-1.90;99.90;;;;;;5136268;27;20043;-71
2022/03/07 06:25:33;;;;;;;35.90;29.87;;;-1.90;99.90;;;;;;5136165;27;20463;-71
2022/03/07 06:28:00;;;;;;;36.40;30.17;;;-1.90;99.90;;;;;;5135925;27;20433;-71
2022/03/07 06:30:25;;;;;;;35.23;30.47;;;-1.80;99.90;;;;;;5135004;27;20534;-71
2022/03/07 06:32:51;;;;;;;33.87;29.03;;;-1.80;99.90;;;;;;5136045;27;20050;-71
2022/03/07 06:35:17;;;;;;;32.77;28.17;;;-1.70;99.90;;;;;;5135082;27;20135;-71
2022/03/07 06:37:47;;;;;;;31.43;27.23;;;-1.70;99.90;;;;;;5112426;28;20060;-71
2022/03/07 06:40:13;;;;;;;28.60;25.67;;;-1.60;99.90;;;;;;5114387;28;20533;-71
2022/03/07 06:42:38;;;;;;;31.20;26.50;;;-1.60;99.90;;;;;;5114085;28;20047;-71
2022/03/07 06:45:05;;;;;;;29.13;26.03;;;-1.60;99.90;;;;;;5114778;28;20047;-71
2022/03/07 06:47:30;;;;;;;28.43;25.40;;;-1.50;99.90;;;;;;5114198;28;20049;-71
2022/03/07 06:49:57;;;;;;;28.90;25.83;;;-1.40;99.90;;;;;;5116020;27;20036;-71
2022/03/07 06:52:24;;;;;;;28.87;25.70;;;-1.40;99.90;;;;;;5126567;27;20054;-71
2022/03/07 06:54:50;;;;;;;29.20;25.73;;;-1.30;99.90;;;;;;5135894;27;20099;-71
2022/03/07 06:57:16;;;;;;;27.10;24.30;;;-1.30;99.90;;;;;;5134535;27;20490;-71
2022/03/07 06:59:42;;;;;;;26.80;23.13;;;-1.20;99.90;;;;;;5135596;27;20129;-71
2022/03/07 07:02:08;;;;;;;27.90;24.33;;;-1.10;99.90;;;;;;5135131;27;20103;-71
2022/03/07 07:04:34;;;;;;;28.23;25.30;;;-1.00;99.90;;;;;;5134901;27;20487;-71
2022/03/07 07:06:59;;;;;;;25.43;22.93;;;-0.40;99.90;;;;;;5133378;27;20114;-72
2022/03/07 07:09:25;;;;;;;22.60;20.40;;;0.40;99.90;;;;;;5134889;27;20571;-72
2022/03/07 07:11:51;;;;;;;20.63;18.40;;;1.10;99.90;;;;;;5135404;27;20129;-72
2022/03/07 07:14:16;;;;;;;17.90;16.10;;;1.60;99.90;;;;;;5134734;27;20134;-72
2022/03/07 07:16:42;;;;;;;17.63;15.85;;;1.90;99.90;;;;;;5133112;27;20042;-72
2022/03/07 07:19:08;;;;;;;17.70;15.90;;;2.10;99.90;;;;;;5133092;27;20043;-72
2022/03/07 07:21:33;;;;;;;16.95;15.32;;;2.40;99.90;;;;;;5132561;27;20046;-72
2022/03/07 07:23:59;;;;;;;17.00;15.40;;;2.40;99.90;;;;;;5135228;27;20122;-72
2022/03/07 07:26:25;;;;;;;17.45;15.70;;;2.70;99.90;;;;;;5134589;27;20545;-72
2022/03/07 07:28:51;;;;;;;16.45;14.77;;;3.30;99.90;;;;;;5135095;27;20122;-72
2022/03/07 07:31:17;;;;;;;16.27;14.77;;;3.80;99.90;;;;;;5126732;27;20449;-72
2022/03/07 07:33:43;;;;;;;15.25;13.85;;;4.10;99.90;;;;;;5114443;27;20056;-89
2022/03/07 07:36:09;;;;;;;15.90;14.38;;;4.30;99.90;;;;;;5105979;27;20046;-71
2022/03/07 07:38:34;;;;;;;15.23;13.73;;;4.60;99.90;;;;;;5155036;27;20077;-72
2022/03/07 07:41:00;;;;;;;15.43;14.02;;;4.50;99.90;;;;;;5137350;27;20387;-72
2022/03/07 07:43:25;;;;;;;16.63;14.90;;;4.30;99.90;;;;;;5134617;27;20042;-72
2022/03/07 07:45:51;;;;;;;15.40;13.93;;;4.00;99.90;;;;;;5155333;27;20126;-72
2022/03/07 07:48:17;;;;;;;15.27;13.88;;;3.90;99.90;;;;;;5154286;27;20095;-72
2022/03/07 07:50:43;;;;;;;16.80;15.05;;;3.90;99.90;;;;;;5155343;27;20126;-72
2022/03/07 07:53:08;;;;;;;17.35;15.55;;;3.60;99.90;;;;;;5155184;27;20440;-72
2022/03/07 07:55:34;;;;;;;17.20;15.45;;;3.50;99.90;;;;;;5136957;27;20046;-72
2022/03/07 07:58:00;;;;;;;17.67;15.88;;;3.40;99.90;;;;;;5134308;27;20136;-72
2022/03/07 08:00:27;;;;;;;17.75;16.15;;;3.40;99.90;;;;;;5133841;27;20051;-72
2022/03/07 08:02:53;;;;;;;18.67;16.95;;;3.50;99.90;;;;;;5133992;27;20696;-72
2022/03/07 08:05:19;;;;;;;20.52;18.63;;;3.50;99.90;;;;;;5134037;27;20051;-72
2022/03/07 08:07:45;;;;;;;19.80;17.90;;;3.60;99.90;;;;;;5115681;27;20051;-70
2022/03/07 08:10:13;;;;;;;20.42;18.33;;;3.60;99.90;;;;;;5134343;27;20112;-71
2022/03/07 08:12:39;;;;;;;20.65;18.48;;;3.70;99.90;;;;;;5133662;27;20507;-70
2022/03/07 08:15:06;;;;;;;20.13;17.40;;;3.80;99.90;;;;;;5135109;27;20047;-72
2022/03/07 08:17:32;;;;;;;19.17;17.33;;;3.90;99.90;;;;;;5133440;27;20130;-71
2022/03/07 08:19:58;;;;;;;20.08;18.05;;;3.90;99.90;;;;;;5115822;27;20130;-71
2022/03/07 08:22:24;;;;;;;23.02;20.65;;;3.90;99.90;;;;;;5112250;27;20506;-72
2022/03/07 08:24:50;;;;;;;23.80;21.50;;;3.90;99.90;;;;;;5146560;27;20042;-72
2022/03/07 08:27:15;;;;;;;20.52;18.55;;;3.90;99.90;;;;;;5171247;27;20038;-72
2022/03/07 08:29:41;;;;;;;21.98;19.90;;;4.00;99.90;;;;;;5160608;27;20267;-71
2022/03/07 08:32:07;;;;;;;22.10;20.00;;;4.10;99.90;;;;;;5151320;27;20047;-72
2022/03/07 08:34:33;;;;;;;20.50;18.45;;;4.20;99.90;;;;;;5141187;27;20536;-73
2022/03/07 08:36:58;;;;;;;19.50;17.50;;;4.40;99.90;;;;;;5136466;27;20050;-71
2022/03/07 08:39:25;;;;;;;20.73;18.63;;;4.40;99.90;;;;;;5151952;27;20057;-72
2022/03/07 08:41:51;;;;;;;19.63;17.77;;;4.40;99.90;;;;;;5172200;27;20049;-73
2022/03/07 08:44:17;;;;;;;19.52;17.63;;;4.50;99.90;;;;;;5152003;27;20043;-72
2022/03/07 08:46:42;;;;;;;18.70;16.85;;;4.70;99.90;;;;;;5128017;27;20035;-72
2022/03/07 08:49:08;;;;;;;18.20;16.40;;;4.70;99.90;;;;;;5172291;27;20089;-72
2022/03/07 08:51:34;;;;;;;18.08;16.38;;;4.90;99.90;;;;;;5156862;27;20121;-72
2022/03/07 08:54:00;;;;;;;16.85;15.25;;;5.10;99.90;;;;;;5132313;27;20496;-72
2022/03/07 08:56:25;;;;;;;17.00;15.38;;;5.40;99.90;;;;;;5149875;27;20050;-72
2022/03/07 08:58:51;;;;;;;16.17;14.57;;;5.60;99.90;;;;;;5152439;27;20471;-73
2022/03/07 09:01:18;;;;;;;14.60;13.30;;;5.90;99.90;;;;;;5150541;27;20179;-72
2022/03/07 09:03:45;;;;;;;14.13;12.52;;;6.30;99.90;;;;;;5150745;27;20066;-72
2022/03/07 09:06:11;;;;;;;13.40;12.02;;;6.70;99.90;;;;;;5153860;27;20077;-72
2022/03/07 09:08:36;;;;;;;11.88;10.73;;;7.00;99.90;;;;;;5150835;27;20074;-72
2022/03/07 09:11:03;;;;;;;11.40;10.30;;;7.40;99.90;;;;;;5152056;27;20066;-72
2022/03/07 09:13:28;;;;;;;10.65;9.65;;;7.70;99.90;;;;;;5153585;27;20049;-72
2022/03/07 09:15:55;;;;;;;11.07;9.80;;;7.90;99.90;;;;;;5150109;27;20042;-73
2022/03/07 09:18:22;;;;;;;11.05;9.93;;;8.30;99.50;;;;;;5132128;27;20046;-72
2022/03/07 09:20:48;;;;;;;9.52;8.55;;;8.70;98.30;;;;;;5150360;27;20046;-72
2022/03/07 09:23:13;;;;;;;8.75;7.85;;;8.80;96.80;;;;;;5150341;27;20035;-72
2022/03/07 09:25:39;;;;;;;9.35;8.18;;;9.00;94.40;;;;;;5131984;27;20047;-72
2022/03/07 09:28:05;;;;;;;10.43;8.70;;;9.20;93.20;;;;;;5150923;27;20398;-71
2022/03/07 09:30:32;;;;;;;9.00;8.10;;;9.10;93.20;;;;;;5150136;27;20042;-73
2022/03/07 09:32:58;;;;;;;9.60;8.60;;;9.00;91.60;;;;;;5150339;27;20053;-72
2022/03/07 09:35:24;;;;;;;9.43;8.45;;;8.80;91.80;;;;;;5155189;27;20324;-75
2022/03/07 09:37:50;;;;;;;8.93;7.93;;;8.60;92.70;;;;;;5150414;27;20459;-72
2022/03/07 09:40:16;;;;;;;9.18;8.27;;;8.20;93.40;;;;;;5150786;27;20126;-72
2022/03/07 09:42:42;;;;;;;7.35;6.65;;;8.10;93.60;;;;;;5151055;27;20053;-71
2022/03/07 09:45:09;;;;;;;8.23;7.38;;;8.10;93.80;;;;;;5150873;27;20046;-71
2022/03/07 09:47:39;;;;;;;9.07;8.18;;;8.20;93.00;;;;;;5131766;27;20050;-74
2022/03/07 09:50:05;;;;;;;8.90;8.00;;;8.20;94.00;;;;;;5150651;27;20103;-72
2022/03/07 09:52:31;;;;;;;9.95;8.73;;;8.40;94.00;;;;;;5150568;27;20035;-72
2022/03/07 09:54:58;;;;;;;10.40;9.35;;;8.60;93.00;;;;;;5148468;27;20034;-73
2022/03/07 09:57:24;;;;;;;10.38;9.25;;;8.70;93.40;;;;;;5130878;27;20107;-72
2022/03/07 09:59:50;;;;;;;10.80;9.65;;;8.90;92.50;;;;;;5129302;28;20070;-72
2022/03/07 10:02:22;;;;;;;10.23;8.98;;;9.20;92.10;;;;;;5130100;28;20072;-74
2022/03/07 10:04:48;;;;;;;10.02;9.02;;;9.30;91.80;;;;;;5129566;28;20050;-74
2022/03/07 10:07:14;;;;;;;10.57;9.45;;;9.40;90.90;;;;;;5129666;28;20350;-72
2022/03/07 10:09:41;;;;;;;10.32;9.32;;;9.50;91.40;;;;;;5132352;27;20089;-73
2022/03/07 10:12:07;;;;;;;10.45;9.05;;;9.60;91.00;;;;;;5151979;27;20047;-72
2022/03/07 10:14:44;;;;;;;10.25;9.25;;;9.60;90.50;;;;;;5144024;27;20511;-72
2022/03/07 10:17:29;;;;;;;10.02;8.60;;;9.60;90.80;;;;;;5133683;27;20039;-71
2022/03/07 10:19:56;;;;;;;12.27;8.63;;;9.70;90.60;;;;;;5132146;27;20514;-73
2022/03/07 10:22:25;;;;;;;8.65;7.75;;;9.90;88.40;;;;;;5153426;27;20053;-73
2022/03/07 10:25:04;;;;;;;10.60;8.55;;;9.80;87.80;;;;;;5153394;27;20042;-72
2022/03/07 10:27:39;;;;;;;8.98;8.07;;;9.90;87.20;;;;;;5139572;27;20035;-72
2022/03/07 10:30:18;;;;;;;10.10;8.23;;;9.80;86.20;;;;;;5150765;27;20070;-72
2022/03/07 10:32:59;;;;;;;10.40;8.20;;;9.20;86.90;;;;;;5154164;27;20058;-72
2022/03/07 10:35:34;;;;;;;9.13;8.10;;;8.90;90.00;;;;;;5149067;27;20038;-72
2022/03/07 10:38:06;;;;;;;10.60;8.50;;;8.70;90.60;;;;;;5151997;27;20042;-72
2022/03/07 10:40:34;;;;;;;8.52;7.65;;;8.60;91.70;;;;;;5156207;27;20058;-72
2022/03/07 10:43:00;;;;;;;9.02;8.18;;;8.60;90.20;;;;;;5152459;27;20422;-71
2022/03/07 10:45:28;;;;;;;9.25;8.25;;;8.40;91.30;;;;;;5152232;27;20046;-72
2022/03/07 10:47:59;;;;;;;9.05;8.15;;;8.00;92.50;;;;;;5155320;27;20060;-72
2022/03/07 10:50:26;;;;;;;11.30;8.20;;;7.90;94.10;;;;;;5157222;27;20051;-72
2022/03/07 10:52:58;;;;;;;8.90;8.07;;;7.80;94.70;;;;;;5136747;27;20471;-72
2022/03/07 10:55:26;;;;;;;9.65;8.70;;;7.90;95.80;;;;;;5148875;27;20051;-71
2022/03/07 10:57:51;;;;;;;8.15;7.45;;;8.00;96.20;;;;;;5155731;27;20530;-71
2022/03/07 11:00:18;;;;;;;9.90;8.75;;;8.20;95.90;;;;;;5157029;27;20039;-72
2022/03/07 11:02:46;;;;;;;10.57;8.10;;;8.30;96.30;;;;;;5152042;27;20039;-73
2022/03/07 11:05:13;;;;;;;8.88;7.97;;;8.10;95.40;;;;;;5148386;27;20051;-72
2022/03/07 11:07:45;;;;;;;9.55;8.23;;;8.00;96.00;;;;;;5150228;27;20045;-74
2022/03/07 11:10:13;;;;;;;8.45;7.43;;;7.90;96.30;;;;;;5154317;27;20043;-72
2022/03/07 11:12:39;;;;;;;7.80;7.00;;;7.90;96.30;;;;;;5147446;27;20515;-74
2022/03/07 11:15:10;;;;;;;10.27;7.75;;;7.80;96.40;;;;;;5148358;27;20083;-72
2022/03/07 11:17:41;;;;;;;9.02;8.23;;;7.80;96.00;;;;;;5148640;27;20398;-72
2022/03/07 11:20:08;;;;;;;9.40;8.50;;;7.70;96.10;;;;;;5153476;27;20112;-72
2022/03/07 11:22:34;;;;;;;9.18;8.27;;;7.70;96.60;;;;;;5152626;27;20187;-73
2022/03/07 11:25:02;;;;;;;9.27;8.35;;;7.80;96.70;;;;;;5150551;27;20117;-72
2022/03/07 11:27:28;;;;;;;7.35;6.38;;;7.80;97.00;;;;;;5115080;27;20061;-71
2022/03/07 11:29:55;;;;;;;7.63;6.72;;;8.00;92.90;;;;;;5133918;27;20044;-71
2022/03/07 11:32:21;;;;;;;8.30;7.43;;;8.00;93.80;;;;;;5135166;27;20415;-72
2022/03/07 11:34:55;;;;;;;8.35;7.20;;;8.00;94.10;;;;;;5138127;27;20043;-72
2022/03/07 11:37:23;;;;;;;8.40;7.43;;;8.00;94.60;;;;;;5140939;27;20055;-73
2022/03/07 11:39:50;;;;;;;6.85;6.13;;;8.00;93.90;;;;;;5153793;27;20055;-73
2022/03/07 11:42:18;;;;;;;5.95;5.35;;;7.90;93.30;;;;;;5134217;27;20074;-72
2022/03/07 11:44:47;;;;;;;5.18;4.68;;;7.90;91.30;;;;;;5148373;27;20399;-72
2022/03/07 11:47:15;;;;;;;4.93;3.60;;;8.00;90.80;;;;;;5136158;27;20047;-72
2022/03/07 11:49:41;;;;;;;5.85;4.70;;;7.90;83.70;;;;;;5147984;27;20475;-72
2022/03/07 11:52:15;;;;;;;4.30;3.90;;;7.80;85.80;;;;;;5153900;27;20068;-72
2022/03/07 11:54:52;;;;;;;3.90;3.60;;;8.00;83.80;;;;;;5148851;27;20086;-73
2022/03/07 11:57:29;;;;;;;4.72;4.32;;;7.90;81.80;;;;;;5133211;27;20046;-72
2022/03/07 11:59:54;;;;;;;4.80;4.15;;;7.80;83.90;;;;;;5150356;27;20074;-71
2022/03/07 12:02:20;;;;;;;4.32;3.70;;;7.90;82.80;;;;;;5153896;27;20201;-72
2022/03/07 12:04:46;;;;;;;4.38;3.97;;;7.80;79.50;;;;;;5149045;27;20042;-71
2022/03/07 12:07:12;;;;;;;5.22;4.47;;;7.80;80.20;;;;;;5148812;27;20051;-71
2022/03/07 12:09:39;;;;;;;4.57;4.18;;;7.80;83.40;;;;;;5147580;27;20050;-72
2022/03/07 12:12:15;;;;;;;5.05;4.50;;;7.60;80.30;;;;;;5138112;27;20636;-71
2022/03/07 12:14:43;;;;;;;6.45;4.95;;;7.60;81.00;;;;;;5137408;27;20106;-72
2022/03/07 12:17:24;;;;;;;5.10;4.60;;;7.60;80.50;;;;;;5155058;27;20034;-72
2022/03/07 12:19:58;;;;;;;5.57;5.07;;;7.60;81.40;;;;;;5162741;27;20103;-72
2022/03/07 12:22:26;;;;;;;6.25;5.22;;;7.60;82.90;;;;;;5154039;27;20047;-72
2022/03/07 12:24:54;;;;;;;5.90;5.30;;;7.60;83.40;;;;;;5154506;27;20496;-72
2022/03/07 12:27:22;;;;;;;6.47;5.60;;;7.60;82.20;;;;;;5165822;27;20360;-72
2022/03/07 12:29:53;;;;;;;6.68;5.55;;;7.50;82.90;;;;;;5159042;27;20055;-73
2022/03/07 12:32:20;;;;;;;10.25;5.75;;;7.50;83.80;;;;;;5154226;27;20495;-72